sensor_id;sensor_type;location;lat;lon;timestamp;pressure;altitude;pressure_sealevel;temperature;humidity
45793;BME280;31495;42.740;22.908;2022-07-29T00:00:07;93325.59;;;18.85;72.01
45793;BME280;31495;42.740;22.908;2022-07-29T00:01:07;93319.78;;;18.78;72.07
45793;BME280;31495;42.740;22.908;2022-07-29T00:02:07;93327.94;;;18.81;72.21
45793;BME280;31495;42.740;22.908;2022-07-29T00:03:06;93280.59;;;18.50;72.05
45793;BME280;31495;42.740;22.908;2022-07-29T00:04:06;93331.13;;;18.88;72.02
45793;BME280;31495;42.740;22.908;2022-07-29T00:05:05;93342.69;;;18.92;72.08
45793;BME280;31495;42.740;22.908;2022-07-29T00:06:05;93329.47;;;18.82;72.38
45793;BME280;31495;42.740;22.908;2022-07-29T00:07:05;93333.47;;;18.85;72.14
45793;BME280;31495;42.740;22.908;2022-07-29T00:08:04;93347.16;;;18.97;71.91
45793;BME280;31495;42.740;22.908;2022-07-29T00:09:04;93305.84;;;18.72;71.90
45793;BME280;31495;42.740;22.908;2022-07-29T00:10:04;93299.84;;;18.71;71.54
45793;BME280;31495;42.740;22.908;2022-07-29T00:11:04;93345.09;;;19.04;71.31
45793;BME280;31495;42.740;22.908;2022-07-29T00:12:03;93316.16;;;18.84;71.86
45793;BME280;31495;42.740;22.908;2022-07-29T00:13:03;93331.94;;;18.89;71.83
45793;BME280;31495;42.740;22.908;2022-07-29T00:14:04;93331.63;;;18.85;72.05
45793;BME280;31495;42.740;22.908;2022-07-29T00:15:04;93309.00;;;18.74;72.30
45793;BME280;31495;42.740;22.908;2022-07-29T00:16:04;93310.31;;;18.71;72.32
45793;BME280;31495;42.740;22.908;2022-07-29T00:17:03;93284.34;;;18.65;72.32
45793;BME280;31495;42.740;22.908;2022-07-29T00:18:03;93303.56;;;18.81;72.08
45793;BME280;31495;42.740;22.908;2022-07-29T00:19:04;93320.63;;;18.88;71.72
45793;BME280;31495;42.740;22.908;2022-07-29T00:20:04;93320.63;;;18.83;72.00
45793;BME280;31495;42.740;22.908;2022-07-29T00:21:04;93296.72;;;18.74;72.07
45793;BME280;31495;42.740;22.908;2022-07-29T00:22:03;93290.38;;;18.70;71.53
45793;BME280;31495;42.740;22.908;2022-07-29T00:23:03;93278.03;;;18.61;71.69
45793;BME280;31495;42.740;22.908;2022-07-29T00:24:02;93280.91;;;18.59;71.73
45793;BME280;31495;42.740;22.908;2022-07-29T00:25:03;93251.69;;;18.30;71.82
45793;BME280;31495;42.740;22.908;2022-07-29T00:26:02;93293.22;;;18.59;72.23
45793;BME280;31495;42.740;22.908;2022-07-29T00:27:02;93316.59;;;18.70;72.06
45793;BME280;31495;42.740;22.908;2022-07-29T00:28:02;93309.50;;;18.66;72.50
45793;BME280;31495;42.740;22.908;2022-07-29T00:29:03;93270.63;;;18.42;71.74
45793;BME280;31495;42.740;22.908;2022-07-29T00:30:03;93312.66;;;18.68;71.72
45793;BME280;31495;42.740;22.908;2022-07-29T00:31:03;93274.53;;;18.40;71.86
45793;BME280;31495;42.740;22.908;2022-07-29T00:32:03;93289.81;;;18.53;71.83
45793;BME280;31495;42.740;22.908;2022-07-29T00:33:02;93293.47;;;18.57;71.81
45793;BME280;31495;42.740;22.908;2022-07-29T00:34:02;93288.72;;;18.49;71.83
45793;BME280;31495;42.740;22.908;2022-07-29T00:35:02;93284.22;;;18.39;72.12
45793;BME280;31495;42.740;22.908;2022-07-29T00:36:21;93302.56;;;18.44;72.08
45793;BME280;31495;42.740;22.908;2022-07-29T00:37:21;93270.81;;;18.25;72.09
45793;BME280;31495;42.740;22.908;2022-07-29T00:38:20;93287.59;;;18.34;72.12
45793;BME280;31495;42.740;22.908;2022-07-29T00:39:20;93278.34;;;18.22;72.19
45793;BME280;31495;42.740;22.908;2022-07-29T00:40:20;93297.31;;;18.39;72.25
45793;BME280;31495;42.740;22.908;2022-07-29T00:41:19;93292.31;;;18.37;72.24
45793;BME280;31495;42.740;22.908;2022-07-29T00:42:19;93298.16;;;18.45;72.14
45793;BME280;31495;42.740;22.908;2022-07-29T00:43:19;93307.81;;;18.44;72.26
45793;BME280;31495;42.740;22.908;2022-07-29T00:44:18;93268.09;;;18.15;72.18
45793;BME280;31495;42.740;22.908;2022-07-29T00:45:18;93289.69;;;18.32;72.24
45793;BME280;31495;42.740;22.908;2022-07-29T00:46:18;93287.03;;;18.27;72.19
45793;BME280;31495;42.740;22.908;2022-07-29T00:47:18;93302.84;;;18.43;71.89
45793;BME280;31495;42.740;22.908;2022-07-29T00:48:17;93277.88;;;18.30;71.80
45793;BME280;31495;42.740;22.908;2022-07-29T00:49:17;93266.88;;;18.33;71.81
45793;BME280;31495;42.740;22.908;2022-07-29T00:50:17;93265.84;;;18.29;71.81
45793;BME280;31495;42.740;22.908;2022-07-29T00:51:17;93248.75;;;18.16;71.92
45793;BME280;31495;42.740;22.908;2022-07-29T00:52:16;93297.09;;;18.46;72.15
45793;BME280;31495;42.740;22.908;2022-07-29T00:53:16;93268.97;;;18.26;71.91
45793;BME280;31495;42.740;22.908;2022-07-29T00:54:16;93283.16;;;18.35;71.78
45793;BME280;31495;42.740;22.908;2022-07-29T00:55:16;93284.75;;;18.41;71.95
45793;BME280;31495;42.740;22.908;2022-07-29T00:56:15;93294.97;;;18.43;71.61
45793;BME280;31495;42.740;22.908;2022-07-29T00:57:15;93267.13;;;18.26;71.58
45793;BME280;31495;42.740;22.908;2022-07-29T00:58:14;93284.22;;;18.39;71.40
45793;BME280;31495;42.740;22.908;2022-07-29T00:59:13;93251.34;;;18.16;71.26
45793;BME280;31495;42.740;22.908;2022-07-29T01:00:19;93259.25;;;18.26;71.12
45793;BME280;31495;42.740;22.908;2022-07-29T01:01:19;93272.16;;;18.38;71.21
45793;BME280;31495;42.740;22.908;2022-07-29T01:02:18;93272.16;;;18.38;71.31
45793;BME280;31495;42.740;22.908;2022-07-29T01:03:18;93270.84;;;18.35;71.40
45793;BME280;31495;42.740;22.908;2022-07-29T01:04:19;93279.25;;;18.43;71.20
45793;BME280;31495;42.740;22.908;2022-07-29T01:05:22;93253.53;;;18.34;71.06
45793;BME280;31495;42.740;22.908;2022-07-29T01:06:23;93280.59;;;18.50;71.24
45793;BME280;31495;42.740;22.908;2022-07-29T01:07:25;93267.44;;;18.35;71.42
45793;BME280;31495;42.740;22.908;2022-07-29T01:08:26;93257.63;;;18.15;71.51
45793;BME280;31495;42.740;22.908;2022-07-29T01:09:26;93270.28;;;18.28;71.34
45793;BME280;31495;42.740;22.908;2022-07-29T01:10:26;93265.84;;;18.29;71.28
45793;BME280;31495;42.740;22.908;2022-07-29T01:11:27;93276.88;;;18.36;71.06
45793;BME280;31495;42.740;22.908;2022-07-29T01:12:28;93274.25;;;18.36;70.76
45793;BME280;31495;42.740;22.908;2022-07-29T01:13:32;93270.63;;;18.42;70.23
45793;BME280;31495;42.740;22.908;2022-07-29T01:14:32;93279.56;;;18.51;69.98
45793;BME280;31495;42.740;22.908;2022-07-29T01:15:34;93288.22;;;18.52;69.87
45793;BME280;31495;42.740;22.908;2022-07-29T01:17:12;93287.63;;;18.40;70.34
45793;BME280;31495;42.740;22.908;2022-07-29T01:18:20;93288.69;;;18.39;70.24
45793;BME280;31495;42.740;22.908;2022-07-29T01:19:58;93290.53;;;18.43;70.48
45793;BME280;31495;42.740;22.908;2022-07-29T01:24:11;93282.69;;;18.48;70.50
45793;BME280;31495;42.740;22.908;2022-07-29T01:25:34;93294.72;;;18.44;70.41
45793;BME280;31495;42.740;22.908;2022-07-29T01:26:45;93292.59;;;18.41;70.28
45793;BME280;31495;42.740;22.908;2022-07-29T01:28:08;93284.91;;;18.24;70.58
45793;BME280;31495;42.740;22.908;2022-07-29T01:29:22;93306.75;;;18.40;70.61
45793;BME280;31495;42.740;22.908;2022-07-29T01:30:24;93302.31;;;18.46;70.58
45793;BME280;31495;42.740;22.908;2022-07-29T01:31:33;93261.81;;;18.11;70.46
45793;BME280;31495;42.740;22.908;2022-07-29T01:32:37;93276.25;;;18.18;70.61
45793;BME280;31495;42.740;22.908;2022-07-29T01:33:41;93312.25;;;18.39;70.91
45793;BME280;31495;42.740;22.908;2022-07-29T01:34:57;93310.16;;;18.41;70.66
45793;BME280;31495;42.740;22.908;2022-07-29T01:35:58;93263.09;;;18.08;70.85
45793;BME280;31495;42.740;22.908;2022-07-29T01:37:18;93299.91;;;18.34;71.02
45793;BME280;31495;42.740;22.908;2022-07-29T01:38:21;93288.56;;;18.23;71.38
45793;BME280;31495;42.740;22.908;2022-07-29T01:39:32;93313.56;;;18.41;71.16
45793;BME280;31495;42.740;22.908;2022-07-29T01:41:38;93291.91;;;18.13;71.58
45793;BME280;31495;42.740;22.908;2022-07-29T01:42:43;93306.66;;;18.25;71.92
45793;BME280;31495;42.740;22.908;2022-07-29T01:44:18;93301.59;;;18.13;72.43
45793;BME280;31495;42.740;22.908;2022-07-29T01:46:41;93311.88;;;18.19;73.10
45793;BME280;31495;42.740;22.908;2022-07-29T01:47:49;93295.88;;;18.16;72.86
45793;BME280;31495;42.740;22.908;2022-07-29T01:48:56;93279.50;;;17.98;73.42
45793;BME280;31495;42.740;22.908;2022-07-29T01:49:58;93307.13;;;18.16;73.57
45793;BME280;31495;42.740;22.908;2022-07-29T01:51:14;93263.81;;;17.98;73.25
45793;BME280;31495;42.740;22.908;2022-07-29T01:52:23;93248.06;;;17.93;73.65
45793;BME280;31495;42.740;22.908;2022-07-29T01:53:36;93299.88;;;18.29;73.52
45793;BME280;31495;42.740;22.908;2022-07-29T01:54:50;93271.31;;;18.22;73.32
45793;BME280;31495;42.740;22.908;2022-07-29T01:55:51;93292.09;;;18.44;72.96
45793;BME280;31495;42.740;22.908;2022-07-29T01:56:55;93270.53;;;18.27;72.84
45793;BME280;31495;42.740;22.908;2022-07-29T01:57:57;93290.28;;;18.45;72.67
45793;BME280;31495;42.740;22.908;2022-07-29T01:58:58;93267.69;;;18.33;72.79
45793;BME280;31495;42.740;22.908;2022-07-29T01:59:59;93271.38;;;18.37;72.74
45793;BME280;31495;42.740;22.908;2022-07-29T02:01:00;93260.13;;;18.37;72.53
45793;BME280;31495;42.740;22.908;2022-07-29T02:02:02;93282.47;;;18.55;72.39
45793;BME280;31495;42.740;22.908;2022-07-29T02:03:05;93281.69;;;18.54;72.51
45793;BME280;31495;42.740;22.908;2022-07-29T02:04:09;93272.72;;;18.45;72.49
45793;BME280;31495;42.740;22.908;2022-07-29T02:05:12;93236.44;;;18.22;72.86
45793;BME280;31495;42.740;22.908;2022-07-29T02:06:17;93263.78;;;18.36;72.66
45793;BME280;31495;42.740;22.908;2022-07-29T02:07:21;93278.25;;;18.49;73.06
45793;BME280;31495;42.740;22.908;2022-07-29T02:08:21;93240.19;;;18.31;72.75
45793;BME280;31495;42.740;22.908;2022-07-29T02:09:22;93224.69;;;18.24;72.59
45793;BME280;31495;42.740;22.908;2022-07-29T02:10:25;93238.38;;;18.36;72.94
45793;BME280;31495;42.740;22.908;2022-07-29T02:11:26;93239.16;;;18.37;72.83
45793;BME280;31495;42.740;22.908;2022-07-29T02:12:27;93252.56;;;18.46;72.48
45793;BME280;31495;42.740;22.908;2022-07-29T02:13:29;93250.19;;;18.44;72.43
45793;BME280;31495;42.740;22.908;2022-07-29T02:14:42;93260.19;;;18.58;72.46
45793;BME280;31495;42.740;22.908;2022-07-29T02:15:43;93251.78;;;18.45;72.08
45793;BME280;31495;42.740;22.908;2022-07-29T02:16:44;93260.19;;;18.52;72.31
45793;BME280;31495;42.740;22.908;2022-07-29T02:17:54;93217.88;;;18.23;72.28
45793;BME280;31495;42.740;22.908;2022-07-29T02:18:57;93222.06;;;18.24;72.21
45793;BME280;31495;42.740;22.908;2022-07-29T02:20:00;93254.66;;;18.44;72.21
45793;BME280;31495;42.740;22.908;2022-07-29T02:21:01;93224.44;;;18.26;72.85
45793;BME280;31495;42.740;22.908;2022-07-29T02:22:03;93250.16;;;18.39;72.80
45793;BME280;31495;42.740;22.908;2022-07-29T02:23:06;93230.72;;;18.30;72.65
45793;BME280;31495;42.740;22.908;2022-07-29T02:24:07;93249.06;;;18.30;72.69
45793;BME280;31495;42.740;22.908;2022-07-29T02:25:10;93233.81;;;18.16;73.06
45793;BME280;31495;42.740;22.908;2022-07-29T02:26:10;93254.31;;;18.30;73.30
45793;BME280;31495;42.740;22.908;2022-07-29T02:27:11;93234.03;;;18.10;73.70
45793;BME280;31495;42.740;22.908;2022-07-29T02:28:12;93228.78;;;18.05;73.51
45793;BME280;31495;42.740;22.908;2022-07-29T02:29:14;93234.63;;;18.17;73.44
45793;BME280;31495;42.740;22.908;2022-07-29T02:30:14;93229.34;;;18.12;73.46
45793;BME280;31495;42.740;22.908;2022-07-29T02:31:16;93244.84;;;18.18;73.74
45793;BME280;31495;42.740;22.908;2022-07-29T02:32:19;93242.25;;;18.24;73.43
45793;BME280;31495;42.740;22.908;2022-07-29T02:33:21;93163.94;;;17.74;73.65
45793;BME280;31495;42.740;22.908;2022-07-29T02:34:22;93245.94;;;18.33;73.03
45793;BME280;31495;42.740;22.908;2022-07-29T02:35:22;93194.19;;;17.97;73.27
45793;BME280;31495;42.740;22.908;2022-07-29T02:36:23;93210.19;;;18.06;73.40
45793;BME280;31495;42.740;22.908;2022-07-29T02:37:24;93208.09;;;18.03;73.44
45793;BME280;31495;42.740;22.908;2022-07-29T02:38:27;93233.56;;;18.18;73.40
45793;BME280;31495;42.740;22.908;2022-07-29T02:39:47;93231.97;;;18.12;73.57
45793;BME280;31495;42.740;22.908;2022-07-29T02:40:48;93208.59;;;18.00;73.60
45793;BME280;31495;42.740;22.908;2022-07-29T02:41:57;93243.00;;;18.19;73.68
45793;BME280;31495;42.740;22.908;2022-07-29T02:42:59;93240.66;;;18.23;73.50
45793;BME280;31495;42.740;22.908;2022-07-29T02:44:06;93223.03;;;18.08;73.40
45793;BME280;31495;42.740;22.908;2022-07-29T02:45:09;93238.03;;;18.23;73.22
45793;BME280;31495;42.740;22.908;2022-07-29T02:46:14;93250.34;;;18.22;73.22
45793;BME280;31495;42.740;22.908;2022-07-29T02:47:43;93229.88;;;18.14;73.56
45793;BME280;31495;42.740;22.908;2022-07-29T02:48:53;93185.69;;;17.85;73.74
45793;BME280;31495;42.740;22.908;2022-07-29T02:50:06;93180.13;;;17.71;73.97
45793;BME280;31495;42.740;22.908;2022-07-29T02:51:23;93236.34;;;18.01;74.09
45793;BME280;31495;42.740;22.908;2022-07-29T02:53:26;93243.69;;;18.04;74.29
45793;BME280;31495;42.740;22.908;2022-07-29T02:54:41;93196.38;;;17.73;74.57
45793;BME280;31495;42.740;22.908;2022-07-29T02:55:58;93239.00;;;18.06;74.34
45793;BME280;31495;42.740;22.908;2022-07-29T02:57:20;93225.34;;;17.99;73.82
45793;BME280;31495;42.740;22.908;2022-07-29T02:59:30;93213.78;;;17.90;74.14
45793;BME280;31495;42.740;22.908;2022-07-29T03:00:36;93248.19;;;18.09;74.35
45793;BME280;31495;42.740;22.908;2022-07-29T03:01:39;93202.69;;;17.77;74.20
45793;BME280;31495;42.740;22.908;2022-07-29T03:02:44;93230.50;;;17.89;74.19
45793;BME280;31495;42.740;22.908;2022-07-29T03:03:45;93255.47;;;18.07;74.40
45793;BME280;31495;42.740;22.908;2022-07-29T03:04:46;93234.66;;;17.85;74.35
45793;BME280;31495;42.740;22.908;2022-07-29T03:05:48;93251.53;;;17.99;74.70
45793;BME280;31495;42.740;22.908;2022-07-29T03:06:48;93222.78;;;17.72;74.43
45793;BME280;31495;42.740;22.908;2022-07-29T03:07:58;93240.91;;;17.83;74.63
45793;BME280;31495;42.740;22.908;2022-07-29T03:09:00;93225.69;;;17.75;74.59
45793;BME280;31495;42.740;22.908;2022-07-29T03:10:00;93254.88;;;17.89;74.71
45793;BME280;31495;42.740;22.908;2022-07-29T03:11:01;93259.38;;;17.99;74.73
45793;BME280;31495;42.740;22.908;2022-07-29T03:12:01;93264.06;;;17.97;74.71
45793;BME280;31495;42.740;22.908;2022-07-29T03:13:01;93255.66;;;17.90;74.56
45793;BME280;31495;42.740;22.908;2022-07-29T03:14:02;93225.16;;;17.73;74.36
45793;BME280;31495;42.740;22.908;2022-07-29T03:15:02;93227.19;;;17.66;74.38
45793;BME280;31495;42.740;22.908;2022-07-29T03:16:02;93227.72;;;17.68;74.33
45793;BME280;31495;42.740;22.908;2022-07-29T03:17:03;93255.31;;;17.81;74.54
45793;BME280;31495;42.740;22.908;2022-07-29T03:18:03;93248.91;;;17.67;75.10
45793;BME280;31495;42.740;22.908;2022-07-29T03:19:03;93246.28;;;17.67;74.94
45793;BME280;31495;42.740;22.908;2022-07-29T03:20:04;93241.78;;;17.57;74.83
45793;BME280;31495;42.740;22.908;2022-07-29T03:21:05;93220.22;;;17.44;74.89
45793;BME280;31495;42.740;22.908;2022-07-29T03:22:05;93236.50;;;17.52;75.10
45793;BME280;31495;42.740;22.908;2022-07-29T03:23:05;93270.16;;;17.75;74.67
45793;BME280;31495;42.740;22.908;2022-07-29T03:24:05;93238.41;;;17.61;75.00
45793;BME280;31495;42.740;22.908;2022-07-29T03:25:11;93267.84;;;17.79;74.78
45793;BME280;31495;42.740;22.908;2022-07-29T03:26:12;93265.22;;;17.79;74.78
45793;BME280;31495;42.740;22.908;2022-07-29T03:27:11;93264.41;;;17.73;74.83
45793;BME280;31495;42.740;22.908;2022-07-29T03:28:11;93272.28;;;17.78;74.70
45793;BME280;31495;42.740;22.908;2022-07-29T03:29:10;93266.53;;;17.76;74.97
45793;BME280;31495;42.740;22.908;2022-07-29T03:30:11;93241.28;;;17.60;74.86
45793;BME280;31495;42.740;22.908;2022-07-29T03:31:11;93255.22;;;17.71;74.88
45793;BME280;31495;42.740;22.908;2022-07-29T03:32:10;93240.50;;;17.59;75.03
45793;BME280;31495;42.740;22.908;2022-07-29T03:33:10;93244.91;;;17.59;74.83
45793;BME280;31495;42.740;22.908;2022-07-29T03:34:10;93274.88;;;17.73;75.33
45793;BME280;31495;42.740;22.908;2022-07-29T03:35:09;93243.63;;;17.56;74.98
45793;BME280;31495;42.740;22.908;2022-07-29T03:36:09;93270.41;;;17.74;75.15
45793;BME280;31495;42.740;22.908;2022-07-29T03:37:08;93235.00;;;17.61;74.81
45793;BME280;31495;42.740;22.908;2022-07-29T03:38:08;93261.03;;;17.78;75.13
45793;BME280;31495;42.740;22.908;2022-07-29T03:39:08;93219.44;;;17.44;74.75
45793;BME280;31495;42.740;22.908;2022-07-29T03:40:10;93244.69;;;17.60;74.96
45793;BME280;31495;42.740;22.908;2022-07-29T03:41:11;93266.78;;;17.75;74.64
45793;BME280;31495;42.740;22.908;2022-07-29T03:42:15;93272.78;;;17.75;74.87
45793;BME280;31495;42.740;22.908;2022-07-29T03:43:16;93248.28;;;17.54;74.86
45793;BME280;31495;42.740;22.908;2022-07-29T03:44:17;93245.91;;;17.53;75.09
45793;BME280;31495;42.740;22.908;2022-07-29T03:45:18;93269.63;;;17.73;74.74
45793;BME280;31495;42.740;22.908;2022-07-29T03:46:20;93237.53;;;17.51;74.49
45793;BME280;31495;42.740;22.908;2022-07-29T03:47:24;93248.81;;;17.51;75.01
45793;BME280;31495;42.740;22.908;2022-07-29T03:48:26;93279.13;;;17.52;75.54
45793;BME280;31495;42.740;22.908;2022-07-29T03:49:26;93243.09;;;17.27;75.58
45793;BME280;31495;42.740;22.908;2022-07-29T03:50:27;93240.44;;;17.22;75.76
45793;BME280;31495;42.740;22.908;2022-07-29T03:51:27;93273.59;;;17.43;76.11
45793;BME280;31495;42.740;22.908;2022-07-29T03:52:27;93243.59;;;17.24;76.00
45793;BME280;31495;42.740;22.908;2022-07-29T03:53:27;93242.81;;;17.23;75.74
45793;BME280;31495;42.740;22.908;2022-07-29T03:54:27;93259.56;;;17.27;75.71
45793;BME280;31495;42.740;22.908;2022-07-29T03:55:28;93255.13;;;17.28;75.55
45793;BME280;31495;42.740;22.908;2022-07-29T03:56:29;93234.41;;;17.21;75.36
45793;BME280;31495;42.740;22.908;2022-07-29T03:57:30;93246.22;;;17.24;75.49
45793;BME280;31495;42.740;22.908;2022-07-29T03:58:30;93249.56;;;17.19;75.59
45793;BME280;31495;42.740;22.908;2022-07-29T03:59:32;93254.06;;;17.24;75.47
45793;BME280;31495;42.740;22.908;2022-07-29T04:00:32;93284.25;;;17.37;75.68
45793;BME280;31495;42.740;22.908;2022-07-29T04:01:34;93262.38;;;17.21;75.62
45793;BME280;31495;42.740;22.908;2022-07-29T04:02:35;93278.28;;;17.41;75.79
45793;BME280;31495;42.740;22.908;2022-07-29T04:03:35;93263.22;;;17.26;75.43
45793;BME280;31495;42.740;22.908;2022-07-29T04:04:35;93268.81;;;17.35;75.85
45793;BME280;31495;42.740;22.908;2022-07-29T04:05:35;93274.31;;;17.39;75.60
45793;BME280;31495;42.740;22.908;2022-07-29T04:06:42;93287.97;;;17.46;75.64
45793;BME280;31495;42.740;22.908;2022-07-29T04:07:46;93276.66;;;17.35;75.56
45793;BME280;31495;42.740;22.908;2022-07-29T04:08:46;93255.03;;;17.18;75.66
45793;BME280;31495;42.740;22.908;2022-07-29T04:09:45;93251.09;;;17.15;76.05
45793;BME280;31495;42.740;22.908;2022-07-29T04:10:45;93242.31;;;16.99;76.17
45793;BME280;31495;42.740;22.908;2022-07-29T04:11:45;93265.41;;;17.07;76.62
45793;BME280;31495;42.740;22.908;2022-07-29T04:12:44;93280.13;;;17.14;76.93
45793;BME280;31495;42.740;22.908;2022-07-29T04:13:44;93287.16;;;17.13;77.36
45793;BME280;31495;42.740;22.908;2022-07-29T04:14:43;93254.09;;;17.02;77.29
45793;BME280;31495;42.740;22.908;2022-07-29T04:15:43;93246.44;;;16.95;77.14
45793;BME280;31495;42.740;22.908;2022-07-29T04:16:43;93286.50;;;17.28;77.09
45793;BME280;31495;42.740;22.908;2022-07-29T04:17:42;93291.72;;;17.28;76.51
45793;BME280;31495;42.740;22.908;2022-07-29T04:18:42;93277.84;;;17.22;76.74
45793;BME280;31495;42.740;22.908;2022-07-29T04:19:41;93290.47;;;17.31;76.62
45793;BME280;31495;42.740;22.908;2022-07-29T04:20:40;93265.97;;;17.15;76.25
45793;BME280;31495;42.740;22.908;2022-07-29T04:21:40;93287.59;;;17.32;76.33
45793;BME280;31495;42.740;22.908;2022-07-29T04:22:41;93293.16;;;17.41;76.27
45793;BME280;31495;42.740;22.908;2022-07-29T04:23:41;93282.16;;;17.39;75.80
45793;BME280;31495;42.740;22.908;2022-07-29T04:24:40;93274.56;;;17.37;75.48
45793;BME280;31495;42.740;22.908;2022-07-29T04:25:40;93300.06;;;17.52;75.16
45793;BME280;31495;42.740;22.908;2022-07-29T04:26:40;93281.19;;;17.45;75.29
45793;BME280;31495;42.740;22.908;2022-07-29T04:27:39;93297.44;;;17.52;75.58
45793;BME280;31495;42.740;22.908;2022-07-29T04:28:59;93285.13;;;17.48;75.49
45793;BME280;31495;42.740;22.908;2022-07-29T04:29:58;93268.00;;;17.35;75.39
45793;BME280;31495;42.740;22.908;2022-07-29T04:30:57;93291.16;;;17.48;75.35
45793;BME280;31495;42.740;22.908;2022-07-29T04:31:57;93269.34;;;17.37;75.41
45793;BME280;31495;42.740;22.908;2022-07-29T04:32:56;93286.75;;;17.54;75.49
45793;BME280;31495;42.740;22.908;2022-07-29T04:33:56;93276.19;;;17.43;76.03
45793;BME280;31495;42.740;22.908;2022-07-29T04:34:55;93274.59;;;17.42;75.49
45793;BME280;31495;42.740;22.908;2022-07-29T04:35:55;93291.72;;;17.55;75.62
45793;BME280;31495;42.740;22.908;2022-07-29T04:36:55;93289.34;;;17.54;75.22
45793;BME280;31495;42.740;22.908;2022-07-29T04:37:54;93292.00;;;17.59;75.31
45793;BME280;31495;42.740;22.908;2022-07-29T04:38:54;93285.72;;;17.55;75.36
45793;BME280;31495;42.740;22.908;2022-07-29T04:39:54;93294.13;;;17.62;75.26
45793;BME280;31495;42.740;22.908;2022-07-29T04:40:53;93290.53;;;17.68;74.99
45793;BME280;31495;42.740;22.908;2022-07-29T04:41:52;93294.47;;;17.71;74.91
45793;BME280;31495;42.740;22.908;2022-07-29T04:42:52;93260.88;;;17.57;74.82
45793;BME280;31495;42.740;22.908;2022-07-29T04:43:52;93281.09;;;17.67;75.04
45793;BME280;31495;42.740;22.908;2022-07-29T04:44:51;93258.72;;;17.49;75.21
45793;BME280;31495;42.740;22.908;2022-07-29T04:45:51;93262.16;;;17.55;74.87
45793;BME280;31495;42.740;22.908;2022-07-29T04:46:50;93274.84;;;17.68;74.73
45793;BME280;31495;42.740;22.908;2022-07-29T04:47:50;93288.03;;;17.83;74.56
45793;BME280;31495;42.740;22.908;2022-07-29T04:48:49;93257.53;;;17.67;74.49
45793;BME280;31495;42.740;22.908;2022-07-29T04:49:48;93267.75;;;17.69;74.76
45793;BME280;31495;42.740;22.908;2022-07-29T04:50:48;93296.25;;;17.92;74.60
45793;BME280;31495;42.740;22.908;2022-07-29T04:51:47;93256.75;;;17.67;74.78
45793;BME280;31495;42.740;22.908;2022-07-29T04:52:46;93290.19;;;17.92;74.84
45793;BME280;31495;42.740;22.908;2022-07-29T04:53:46;93298.09;;;17.97;74.92
45793;BME280;31495;42.740;22.908;2022-07-29T04:54:45;93267.91;;;17.84;74.68
45793;BME280;31495;42.740;22.908;2022-07-29T04:55:45;93293.44;;;18.04;74.92
45793;BME280;31495;42.740;22.908;2022-07-29T04:56:44;93276.38;;;17.96;74.65
45793;BME280;31495;42.740;22.908;2022-07-29T04:57:45;93297.38;;;18.07;74.62
45793;BME280;31495;42.740;22.908;2022-07-29T04:58:44;93272.97;;;17.96;74.44
45793;BME280;31495;42.740;22.908;2022-07-29T04:59:44;93296.38;;;18.13;74.76
45793;BME280;31495;42.740;22.908;2022-07-29T05:00:43;93288.53;;;18.18;73.92
45793;BME280;31495;42.740;22.908;2022-07-29T05:01:43;93299.06;;;18.23;74.03
45793;BME280;31495;42.740;22.908;2022-07-29T05:02:42;93293.00;;;18.17;74.58
45793;BME280;31495;42.740;22.908;2022-07-29T05:03:42;93268.00;;;17.99;74.40
45793;BME280;31495;42.740;22.908;2022-07-29T05:04:41;93261.97;;;17.94;74.11
45793;BME280;31495;42.740;22.908;2022-07-29T05:05:41;93297.25;;;18.24;73.56
45793;BME280;31495;42.740;22.908;2022-07-29T05:06:41;93300.38;;;18.26;73.63
45793;BME280;31495;42.740;22.908;2022-07-29T05:07:41;93293.88;;;18.28;73.68
45793;BME280;31495;42.740;22.908;2022-07-29T05:08:40;93278.34;;;18.22;74.23
45793;BME280;31495;42.740;22.908;2022-07-29T05:09:40;93256.78;;;18.04;73.92
45793;BME280;31495;42.740;22.908;2022-07-29T05:10:39;93297.78;;;18.31;73.98
45793;BME280;31495;42.740;22.908;2022-07-29T05:11:38;93255.78;;;18.10;74.22
45793;BME280;31495;42.740;22.908;2022-07-29T05:12:38;93275.19;;;18.19;74.18
45793;BME280;31495;42.740;22.908;2022-07-29T05:13:37;93279.22;;;18.32;73.91
45793;BME280;31495;42.740;22.908;2022-07-29T05:14:37;93252.13;;;18.16;73.63
45793;BME280;31495;42.740;22.908;2022-07-29T05:15:37;93293.19;;;18.48;74.12
45793;BME280;31495;42.740;22.908;2022-07-29T05:16:36;93272.47;;;18.42;73.75
45793;BME280;31495;42.740;22.908;2022-07-29T05:17:35;93242.25;;;18.29;73.99
45793;BME280;31495;42.740;22.908;2022-07-29T05:18:35;93269.88;;;18.52;73.73
45793;BME280;31495;42.740;22.908;2022-07-29T05:19:34;93292.22;;;18.70;73.70
45793;BME280;31495;42.740;22.908;2022-07-29T05:20:34;93258.09;;;18.54;73.69
45793;BME280;31495;42.740;22.908;2022-07-29T05:21:33;93262.84;;;18.63;73.83
45793;BME280;31495;42.740;22.908;2022-07-29T05:22:33;93265.75;;;18.71;73.29
45793;BME280;31495;42.740;22.908;2022-07-29T05:23:32;93267.13;;;18.79;72.56
45793;BME280;31495;42.740;22.908;2022-07-29T05:24:32;93256.06;;;18.77;72.29
45793;BME280;31495;42.740;22.908;2022-07-29T05:25:31;93229.56;;;18.63;72.60
45793;BME280;31495;42.740;22.908;2022-07-29T05:26:31;93287.91;;;19.01;72.32
45793;BME280;31495;42.740;22.908;2022-07-29T05:27:30;93272.16;;;18.91;72.62
45793;BME280;31495;42.740;22.908;2022-07-29T05:28:33;93263.78;;;18.94;72.49
45793;BME280;31495;42.740;22.908;2022-07-29T05:29:33;93298.97;;;19.14;72.73
45793;BME280;31495;42.740;22.908;2022-07-29T05:30:33;93257.72;;;18.94;72.61
45793;BME280;31495;42.740;22.908;2022-07-29T05:31:33;93271.94;;;19.08;72.42
45793;BME280;31495;42.740;22.908;2022-07-29T05:32:32;93295.59;;;19.28;72.39